Raeren, Belgium
Current Conditions -  °F | °C
As of 7:25 AM on Tuesday 21 Oct 2014 (Local Time) from EBLB Reporting Station
Broken Clouds Broken Clouds  
Wind Chill: 44°   Ceiling: 1100
Heat Index: 48°   Visibility: 6mi
Dew Point: 45°   Wind: 9mph
Humidity: 87%   Direction: 220°SW
Pressure: 29.85"   Gusts: NA
Location:  50.67°N, 6.12°E
Report Text: EBLB 210525Z 22008KT 9999 FEW008 BKN011 BKN016 09/07 Q1011 GRN
Loading
Personal Weather Stations






























Interactive Weather Map
Tropical Storm Tracking
New forecast layout! Learn more

10-Day Weather Forecast

Advertisements
Track Severe Weather on mobile